createdAt,value
2023-03-17T00:56:28.866Z,25.00
2023-03-17T01:00:30.432Z,25.00
2023-03-17T01:04:30.170Z,0.00
2023-03-17T01:08:30.350Z,0.00
2023-03-17T01:12:30.524Z,26.08
2023-03-17T01:16:30.742Z,25.00
2023-03-17T01:20:31.263Z,27.79
2023-03-17T01:24:30.936Z,26.02
2023-03-17T01:28:31.051Z,30.09
2023-03-17T01:32:31.149Z,28.42
2023-03-17T01:36:31.207Z,27.06
2023-03-17T01:40:32.067Z,25.00
2023-03-17T01:44:31.401Z,26.27
2023-03-17T01:48:31.374Z,27.35
2023-03-17T01:52:31.435Z,26.89
2023-03-17T01:56:31.472Z,27.30
2023-03-17T02:00:32.013Z,32.00
2023-03-17T02:04:31.628Z,30.30
2023-03-17T02:12:31.700Z,29.86
2023-03-17T02:16:31.863Z,30.13
2023-03-17T02:20:32.385Z,30.37
2023-03-17T02:24:31.922Z,28.34
2023-03-17T02:28:32.079Z,29.73
2023-03-17T02:32:32.364Z,30.38
2023-03-17T02:36:32.447Z,29.85
2023-03-17T02:40:32.603Z,27.37
2023-03-17T02:44:32.778Z,29.37
2023-03-17T02:48:32.858Z,30.26
2023-03-17T02:52:32.855Z,29.39
2023-03-17T02:56:32.762Z,30.24
2023-03-17T03:00:32.927Z,28.11
2023-03-17T03:04:32.747Z,30.78
2023-03-17T03:08:32.748Z,27.43
2023-03-17T03:12:32.858Z,25.87
2023-03-17T03:16:32.910Z,30.01
2023-03-17T03:20:32.974Z,30.41
2023-03-17T03:24:32.945Z,29.27
2023-03-17T03:28:32.965Z,29.83
2023-03-17T03:32:33.075Z,28.97
2023-03-17T03:36:33.053Z,28.74
2023-03-17T03:40:33.123Z,29.23
2023-03-17T03:44:33.245Z,30.65
2023-03-17T03:48:33.278Z,29.57
2023-03-17T03:52:33.335Z,30.38
2023-03-17T03:56:33.499Z,29.13
2023-03-17T04:00:33.629Z,32.07
2023-03-17T04:04:33.699Z,31.88
2023-03-17T04:08:33.867Z,29.11
2023-03-17T12:36:37.957Z,222.54
2023-03-17T12:40:37.948Z,224.55
2023-03-17T12:44:37.907Z,221.40
2023-03-17T12:48:38.149Z,217.65
2023-03-17T15:04:39.073Z,211.01
2023-03-17T15:08:39.079Z,215.26
2023-03-17T15:12:38.951Z,215.94
2023-03-17T15:16:38.935Z,212.50
2023-03-17T15:20:39.132Z,206.79
2023-03-17T15:24:38.999Z,209.64
2023-03-17T15:28:39.017Z,207.49
2023-03-17T15:32:39.143Z,206.23
2023-03-17T15:36:39.076Z,202.59
2023-03-17T15:40:38.591Z,203.70
2023-03-17T15:44:39.718Z,202.71
2023-03-17T15:48:38.561Z,200.99
2023-03-17T15:52:39.032Z,203.90
2023-03-17T15:56:38.500Z,200.66
2023-03-17T16:00:38.468Z,200.64
2023-03-17T16:04:38.516Z,199.90
2023-03-17T16:08:38.574Z,195.93
2023-03-17T16:12:38.516Z,195.57
2023-03-17T16:16:38.500Z,195.03
2023-03-17T16:20:38.451Z,196.23
2023-03-17T16:24:38.425Z,193.10
2023-03-17T16:28:38.369Z,193.47
2023-03-17T16:32:38.387Z,190.66
2023-03-17T16:36:38.527Z,188.83
2023-03-17T16:40:38.506Z,191.01
2023-03-17T16:44:38.720Z,191.82
2023-03-17T16:48:38.371Z,190.59
2023-03-17T16:52:38.516Z,187.22
2023-03-17T16:56:38.332Z,187.94
2023-03-17T17:00:38.241Z,185.09
2023-03-17T17:04:38.216Z,185.68
2023-03-17T17:08:38.224Z,185.58
2023-03-17T17:12:38.136Z,181.44
2023-03-17T17:16:38.287Z,184.53
2023-03-17T17:20:38.193Z,182.68
2023-03-17T17:24:38.064Z,182.92
2023-03-17T17:28:38.073Z,180.45
2023-03-17T17:32:38.096Z,180.52
2023-03-17T17:36:37.940Z,177.50
2023-03-17T17:40:37.913Z,172.90
2023-03-17T17:44:38.746Z,174.69
2023-03-17T17:48:38.031Z,177.28
2023-03-17T17:52:38.031Z,175.33
2023-03-17T17:56:38.058Z,173.10
2023-03-17T18:00:38.033Z,172.31
2023-03-17T18:04:38.040Z,168.86
2023-03-17T18:08:37.962Z,170.05
2023-03-17T18:12:38.145Z,168.15
2023-03-17T18:16:38.587Z,166.33
2023-03-17T18:20:38.376Z,170.02
2023-03-17T18:24:38.366Z,170.26
2023-03-17T18:28:38.332Z,168.59
2023-03-17T18:32:38.340Z,163.01
2023-03-17T18:36:38.269Z,164.41
2023-03-17T18:40:38.211Z,165.60
2023-03-17T18:44:38.185Z,162.44
2023-03-17T18:48:38.162Z,162.79
2023-03-17T18:52:38.168Z,162.94
2023-03-17T18:56:38.308Z,160.62
2023-03-17T19:00:38.398Z,161.71
2023-03-17T19:04:38.621Z,159.45
2023-03-17T19:08:38.743Z,160.99
2023-03-17T19:12:38.881Z,156.87
2023-03-17T19:16:39.059Z,156.14
2023-03-17T19:20:39.157Z,156.59
2023-03-17T19:24:39.289Z,154.76
2023-03-17T19:28:39.381Z,152.48
2023-03-17T19:32:39.726Z,154.50
2023-03-17T19:36:39.623Z,153.29
2023-03-17T19:40:39.696Z,152.78
2023-03-17T19:44:39.850Z,152.21
2023-03-17T19:48:40.047Z,149.17
2023-03-17T19:52:40.179Z,149.06
2023-03-17T19:56:40.396Z,148.50
2023-03-17T20:00:40.499Z,145.43
2023-03-17T20:04:40.659Z,146.60
2023-03-17T20:08:40.790Z,143.65
2023-03-17T20:12:40.824Z,143.94
2023-03-17T20:16:41.527Z,142.20
2023-03-17T20:20:41.177Z,143.96
2023-03-17T20:24:41.389Z,140.32
2023-03-17T20:28:41.503Z,138.52
2023-03-17T20:32:41.625Z,137.87
2023-03-17T20:36:41.597Z,138.91
2023-03-17T20:40:41.626Z,136.34
2023-03-17T20:44:41.679Z,135.75
2023-03-17T20:48:41.723Z,136.53
2023-03-17T20:52:41.702Z,133.27
2023-03-17T20:56:41.744Z,129.32
2023-03-17T21:00:41.827Z,128.58
2023-03-17T21:04:41.922Z,127.83
2023-03-17T21:08:41.880Z,131.38
2023-03-17T21:12:41.977Z,127.13
2023-03-17T21:16:41.944Z,126.36
2023-03-17T21:20:41.939Z,126.30
2023-03-17T21:24:42.011Z,124.85
2023-03-17T21:28:42.017Z,121.99
2023-03-17T21:32:42.130Z,122.25
2023-03-17T21:36:41.994Z,114.45
2023-03-17T21:40:42.075Z,114.50
2023-03-17T21:44:42.118Z,111.93
2023-03-17T21:48:42.082Z,109.60
2023-03-17T21:52:42.081Z,110.60
2023-03-17T21:56:42.061Z,105.37
2023-03-17T22:00:45.617Z,104.95
2023-03-17T22:04:42.110Z,104.52
2023-03-17T22:08:42.013Z,102.37
2023-03-17T22:12:41.954Z,99.24
2023-03-17T22:16:42.077Z,96.88
2023-03-17T22:20:41.855Z,97.61
2023-03-17T22:24:41.800Z,100.01
2023-03-17T22:28:41.765Z,90.60
2023-03-17T22:32:41.763Z,93.99
2023-03-17T22:36:41.638Z,92.24
2023-03-17T22:40:41.633Z,90.71
2023-03-17T22:44:41.590Z,94.40
2023-03-17T22:48:41.543Z,91.62
2023-03-17T22:52:41.513Z,88.91
2023-03-17T22:56:41.496Z,86.54
2023-03-17T23:00:41.474Z,88.64
2023-03-17T23:04:41.529Z,82.87
2023-03-17T23:08:41.476Z,79.51
2023-03-17T23:12:41.499Z,74.69
2023-03-17T23:16:41.575Z,69.88
2023-03-17T23:20:41.469Z,64.01
2023-03-17T23:24:41.433Z,68.69
2023-03-17T23:28:41.455Z,63.34
2023-03-17T23:32:41.459Z,60.09
2023-03-17T23:36:41.405Z,62.86
2023-03-17T23:40:41.370Z,55.91
2023-03-17T23:44:41.341Z,57.71
2023-03-17T23:48:42.639Z,60.19
2023-03-17T23:52:41.327Z,56.01
2023-03-17T23:56:41.303Z,58.29
